createdAt,value
2018-08-06T00:00:00.694Z,46.50
2018-08-06T00:01:01.129Z,46.21
2018-08-06T00:02:00.633Z,46.60
2018-08-06T00:03:00.590Z,46.50
2018-08-06T00:04:00.559Z,46.31
2018-08-06T00:05:00.572Z,46.21
2018-08-06T00:06:00.701Z,46.21
2018-08-06T00:07:00.493Z,46.31
2018-08-06T00:08:00.456Z,46.01
2018-08-06T00:09:00.457Z,46.41
2018-08-06T00:10:00.431Z,45.72
2018-08-06T00:12:00.538Z,45.34
2018-08-06T00:13:00.313Z,45.53
2018-08-06T00:14:00.269Z,45.53
2018-08-06T00:15:00.238Z,45.62
2018-08-06T00:16:00.447Z,45.62
2018-08-06T00:17:00.328Z,45.53
2018-08-06T00:18:00.172Z,45.62
2018-08-06T00:19:00.129Z,45.72
2018-08-06T00:20:00.112Z,45.62
2018-08-06T00:21:00.300Z,45.80
2018-08-06T00:22:00.093Z,45.62
2018-08-06T00:23:00.029Z,45.80
2018-08-06T00:24:00.045Z,45.80
2018-08-06T00:24:59.971Z,46.28
2018-08-06T00:26:00.162Z,46.01
2018-08-06T00:26:59.898Z,46.19
2018-08-06T00:27:59.880Z,46.79
2018-08-06T00:28:59.850Z,47.18
2018-08-06T00:29:59.820Z,47.06
2018-08-06T00:30:59.995Z,46.67
2018-08-06T00:31:59.798Z,47.06
2018-08-06T00:32:59.770Z,46.96
2018-08-06T00:33:59.692Z,47.35
2018-08-06T00:34:59.656Z,46.96
2018-08-06T00:35:59.668Z,47.16
2018-08-06T00:36:59.632Z,47.06
2018-08-06T00:37:59.919Z,46.96
2018-08-06T00:38:59.560Z,47.06
2018-08-06T00:39:59.548Z,46.96
2018-08-06T00:40:59.526Z,47.13
2018-08-06T00:41:59.532Z,47.55
2018-08-06T00:42:59.641Z,47.25
2018-08-06T00:43:59.432Z,47.45
2018-08-06T00:44:59.458Z,47.35
2018-08-06T00:45:59.383Z,47.35
2018-08-06T00:46:59.331Z,47.42
2018-08-06T00:47:59.318Z,48.39
2018-08-06T00:48:59.384Z,49.17
2018-08-06T00:49:59.250Z,50.24
2018-08-06T00:50:59.211Z,51.11
2018-08-06T00:51:59.189Z,52.66
2018-08-06T00:52:59.161Z,53.24
2018-08-06T00:53:59.142Z,54.09
2018-08-06T00:54:59.492Z,54.96
2018-08-06T00:55:59.098Z,55.64
2018-08-06T00:56:59.059Z,55.44
2018-08-06T00:57:58.996Z,55.54
2018-08-06T00:58:59.017Z,54.77
2018-08-06T00:59:58.961Z,53.89
2018-08-06T01:00:58.980Z,53.70
2018-08-06T01:01:58.896Z,53.99
2018-08-06T01:02:58.872Z,53.70
2018-08-06T01:03:58.826Z,53.31
2018-08-06T01:04:58.790Z,53.12
2018-08-06T01:05:58.783Z,53.02
2018-08-06T01:06:58.753Z,52.93
2018-08-06T01:07:58.767Z,52.93
2018-08-06T01:08:58.753Z,52.73
2018-08-06T01:09:58.757Z,52.73
2018-08-06T01:10:58.654Z,51.96
2018-08-06T01:11:58.732Z,52.25
2018-08-06T01:12:58.597Z,52.34
2018-08-06T01:13:58.634Z,52.54
2018-08-06T01:14:58.525Z,51.86
2018-08-06T01:15:58.523Z,51.67
2018-08-06T01:16:59.202Z,51.28
2018-08-06T01:17:58.664Z,51.18
2018-08-06T01:18:58.394Z,51.67
2018-08-06T01:19:58.397Z,51.09
2018-08-06T01:20:58.325Z,50.70
2018-08-06T01:21:58.327Z,50.60
2018-08-06T01:22:58.387Z,50.41
2018-08-06T01:23:58.299Z,50.41
2018-08-06T01:24:58.247Z,50.41
2018-08-06T01:25:58.202Z,50.41
2018-08-06T01:26:58.161Z,50.12
2018-08-06T01:27:58.135Z,50.02
2018-08-06T01:28:58.145Z,50.70
2018-08-06T01:29:58.123Z,50.60
2018-08-06T01:30:58.079Z,50.21
2018-08-06T01:31:58.033Z,50.50
2018-08-06T01:32:57.986Z,50.21
2018-08-06T01:33:57.954Z,50.31
2018-08-06T01:34:57.952Z,50.31
2018-08-06T01:35:57.940Z,50.50
2018-08-06T01:36:57.908Z,49.92
2018-08-06T01:37:57.840Z,50.21
2018-08-06T01:38:57.832Z,49.73
2018-08-06T01:39:57.836Z,49.54
2018-08-06T01:40:57.817Z,49.44
2018-08-06T01:41:57.796Z,49.15
2018-08-06T01:42:57.765Z,49.34
2018-08-06T01:43:57.703Z,49.61
2018-08-06T01:44:57.817Z,49.41
2018-08-06T01:45:57.796Z,49.80
2018-08-06T01:46:57.591Z,49.51
2018-08-06T01:47:57.549Z,49.51
2018-08-06T01:48:57.530Z,50.29
2018-08-06T01:49:57.512Z,50.09
2018-08-06T01:50:57.459Z,50.19
2018-08-06T01:51:57.450Z,50.48
2018-08-06T01:52:57.400Z,50.57
2018-08-06T01:53:57.385Z,51.74
2018-08-06T01:54:57.352Z,50.96
2018-08-06T01:55:57.316Z,51.35
2018-08-06T01:56:57.326Z,52.12
2018-08-06T01:57:57.281Z,52.29
2018-08-06T01:58:57.216Z,52.00
2018-08-06T01:59:57.334Z,52.61
2018-08-06T02:00:57.167Z,52.39
2018-08-06T02:01:57.156Z,52.58
2018-08-06T02:02:57.116Z,52.29
2018-08-06T02:03:57.676Z,52.78
2018-08-06T02:04:57.047Z,53.17
2018-08-06T02:05:57.020Z,52.78
2018-08-06T02:06:57.059Z,52.49
2018-08-06T02:07:56.971Z,52.29
2018-08-06T02:08:56.937Z,51.90
2018-08-06T02:09:56.913Z,52.20
2018-08-06T02:10:56.913Z,51.72
2018-08-06T02:11:57.215Z,51.42
2018-08-06T02:12:56.812Z,51.72
2018-08-06T02:13:57.007Z,52.00
2018-08-06T02:14:56.763Z,51.04
2018-08-06T02:15:56.733Z,51.52
2018-08-06T02:16:56.761Z,50.84
2018-08-06T02:17:56.650Z,50.35
2018-08-06T02:18:56.697Z,50.45
2018-08-06T02:19:56.863Z,50.65
2018-08-06T02:20:56.597Z,50.35
2018-08-06T02:21:56.633Z,49.39
2018-08-06T02:22:56.614Z,49.19
2018-08-06T02:23:56.731Z,48.61
2018-08-06T02:24:56.485Z,48.71
2018-08-06T02:25:56.525Z,49.00
2018-08-06T02:26:56.452Z,48.81
2018-08-06T02:27:56.454Z,48.81
2018-08-06T02:28:56.356Z,48.81
2018-08-06T02:29:56.316Z,48.61
2018-08-06T02:30:56.340Z,49.00
2018-08-06T02:31:56.700Z,49.10
2018-08-06T02:32:56.218Z,49.00
2018-08-06T02:33:56.324Z,48.42
2018-08-06T02:34:56.176Z,48.81
2018-08-06T02:35:56.124Z,49.29
2018-08-06T02:36:56.124Z,50.26
2018-08-06T02:37:56.241Z,49.85
2018-08-06T02:38:56.034Z,50.14
2018-08-06T02:39:56.043Z,50.52
2018-08-06T02:40:55.986Z,51.68
2018-08-06T02:41:55.953Z,51.40
2018-08-06T02:42:55.930Z,51.18
2018-08-06T02:43:56.100Z,51.20
2018-08-06T02:44:56.075Z,50.72
2018-08-06T02:45:55.833Z,51.20
2018-08-06T02:46:55.821Z,51.40
2018-08-06T02:47:55.800Z,51.50
2018-08-06T02:48:55.777Z,51.86
2018-08-06T02:49:55.716Z,51.76
2018-08-06T02:50:55.703Z,52.73
2018-08-06T02:51:55.681Z,52.82
2018-08-06T02:52:55.632Z,53.31
2018-08-06T02:53:55.637Z,53.69
2018-08-06T02:54:55.600Z,54.37
2018-08-06T02:55:55.556Z,54.95
2018-08-06T02:56:55.522Z,54.75
2018-08-06T02:57:55.480Z,55.34
2018-08-06T02:59:55.455Z,55.79
2018-08-06T03:00:55.418Z,56.11
2018-08-06T03:01:55.373Z,56.02
2018-08-06T03:02:55.352Z,56.09
2018-08-06T03:03:55.312Z,56.60
2018-08-06T03:05:55.241Z,57.05
2018-08-06T03:06:55.223Z,57.63
2018-08-06T03:07:55.190Z,57.44
2018-08-06T03:08:55.166Z,57.54
2018-08-06T03:09:55.203Z,57.82
2018-08-06T03:10:55.116Z,57.63
2018-08-06T03:11:55.081Z,57.82
2018-08-06T03:12:55.059Z,57.63
2018-08-06T03:13:55.026Z,57.70
2018-08-06T03:14:54.995Z,57.89
2018-08-06T03:15:55.014Z,57.60
2018-08-06T03:16:54.976Z,58.09
2018-08-06T03:17:54.955Z,57.99
2018-08-06T03:18:55.066Z,57.89
2018-08-06T03:19:54.881Z,57.70
2018-08-06T03:20:54.808Z,57.70
2018-08-06T03:21:54.798Z,57.51
2018-08-06T03:22:54.731Z,58.09
2018-08-06T03:23:54.709Z,58.18
2018-08-06T03:24:54.730Z,57.79
2018-08-06T03:25:54.713Z,57.21
2018-08-06T03:26:54.652Z,57.12
2018-08-06T03:27:54.624Z,57.12
2018-08-06T03:28:54.569Z,57.12
2018-08-06T03:29:54.544Z,57.12
2018-08-06T03:30:54.766Z,56.45
2018-08-06T03:31:54.491Z,56.73
2018-08-06T03:32:54.508Z,56.63
2018-08-06T03:33:54.405Z,55.87
2018-08-06T03:34:54.462Z,55.87
2018-08-06T03:35:54.367Z,55.87
2018-08-06T03:36:54.722Z,56.35
2018-08-06T03:37:54.292Z,55.57
2018-08-06T03:38:54.264Z,55.47
2018-08-06T03:39:54.241Z,55.67
2018-08-06T03:40:54.218Z,55.38
2018-08-06T03:41:54.173Z,55.09
2018-08-06T03:42:54.235Z,55.38
2018-08-06T03:43:54.102Z,55.47
2018-08-06T03:44:54.096Z,55.21
2018-08-06T03:45:54.063Z,55.47
2018-08-06T03:46:54.012Z,55.19
2018-08-06T03:47:53.996Z,55.51
2018-08-06T03:48:53.974Z,55.41
2018-08-06T03:49:53.956Z,55.89
2018-08-06T03:50:53.901Z,55.67
2018-08-06T03:51:53.912Z,55.51
2018-08-06T03:52:53.946Z,55.67
2018-08-06T03:53:53.830Z,55.70
2018-08-06T03:54:53.788Z,55.60
2018-08-06T03:55:53.756Z,56.28
2018-08-06T03:56:53.738Z,56.37
2018-08-06T03:57:53.712Z,56.86
2018-08-06T03:58:53.683Z,56.57
2018-08-06T03:59:53.638Z,57.60
2018-08-06T04:00:53.613Z,57.89
2018-08-06T04:01:53.593Z,57.99
2018-08-06T04:02:53.556Z,58.18
2018-08-06T04:03:53.671Z,59.34
2018-08-06T04:04:53.491Z,59.70
2018-08-06T04:05:53.455Z,59.60
2018-08-06T04:06:53.419Z,59.31
2018-08-06T04:07:53.395Z,59.70
2018-08-06T04:08:53.362Z,59.80
2018-08-06T04:09:53.545Z,59.80
2018-08-06T04:10:53.314Z,59.99
2018-08-06T04:11:53.276Z,59.99
2018-08-06T04:12:53.240Z,59.99
2018-08-06T04:13:53.223Z,60.47
2018-08-06T04:14:53.182Z,60.38
2018-08-06T04:15:53.323Z,59.99
2018-08-06T04:16:53.132Z,60.28
2018-08-06T04:17:53.104Z,60.96
2018-08-06T04:18:53.077Z,60.67
2018-08-06T04:19:53.039Z,60.76
2018-08-06T04:20:53.011Z,60.67
2018-08-06T04:21:52.990Z,60.96
2018-08-06T04:22:52.940Z,60.86
2018-08-06T04:23:52.912Z,60.86
2018-08-06T04:24:52.898Z,60.86
2018-08-06T04:25:52.865Z,60.28
2018-08-06T04:26:52.836Z,60.28
2018-08-06T04:27:53.004Z,60.38
2018-08-06T04:28:52.766Z,59.99
2018-08-06T04:29:52.739Z,60.28
2018-08-06T04:30:52.736Z,60.38
2018-08-06T04:31:52.668Z,59.99
2018-08-06T04:32:52.690Z,59.80
2018-08-06T04:33:52.626Z,60.09
2018-08-06T04:34:52.598Z,60.09
2018-08-06T04:35:52.562Z,60.09
2018-08-06T04:36:52.681Z,60.57
2018-08-06T04:37:52.508Z,60.38
2018-08-06T04:38:52.470Z,60.57
2018-08-06T04:39:52.430Z,60.57
2018-08-06T04:40:52.421Z,60.25
2018-08-06T04:41:52.582Z,60.18
2018-08-06T04:43:52.311Z,61.12
2018-08-06T04:44:52.304Z,61.83
2018-08-06T04:45:52.264Z,61.02
2018-08-06T04:46:52.221Z,61.60
2018-08-06T04:47:52.208Z,61.41
2018-08-06T04:48:52.178Z,61.80
2018-08-06T04:49:52.130Z,61.51
2018-08-06T04:50:52.114Z,61.70
2018-08-06T04:51:52.078Z,61.89
2018-08-06T04:52:52.054Z,61.51
2018-08-06T04:53:52.019Z,61.41
2018-08-06T04:54:51.997Z,61.60
2018-08-06T04:55:51.951Z,61.51
2018-08-06T04:56:51.931Z,61.80
2018-08-06T04:57:52.090Z,62.28
2018-08-06T04:59:51.863Z,62.47
2018-08-06T05:00:51.801Z,63.15
2018-08-06T05:01:51.811Z,63.02
2018-08-06T05:03:51.710Z,62.95
2018-08-06T05:04:51.676Z,63.02
2018-08-06T05:05:51.644Z,62.92
2018-08-06T05:06:51.641Z,62.44
2018-08-06T05:07:51.599Z,62.34
2018-08-06T05:09:51.555Z,62.15
2018-08-06T05:10:51.495Z,61.99
2018-08-06T05:11:51.469Z,62.25
2018-08-06T05:12:51.447Z,62.25
2018-08-06T05:13:51.403Z,61.47
2018-08-06T05:14:51.530Z,61.86
2018-08-06T05:15:51.358Z,61.77
2018-08-06T05:16:51.326Z,61.57
2018-08-06T05:17:51.335Z,61.77
2018-08-06T05:18:51.282Z,61.96
2018-08-06T05:19:51.224Z,61.47
2018-08-06T05:20:51.306Z,61.57
2018-08-06T05:21:51.182Z,62.34
2018-08-06T05:22:51.159Z,62.44
2018-08-06T05:23:51.107Z,62.15
2018-08-06T05:24:51.366Z,61.96
2018-08-06T05:25:51.057Z,61.77
2018-08-06T05:26:51.005Z,61.47
2018-08-06T05:27:50.980Z,61.28
2018-08-06T05:28:50.955Z,61.47
2018-08-06T05:29:51.126Z,61.67
2018-08-06T05:31:50.857Z,61.38
2018-08-06T05:32:50.827Z,61.38
2018-08-06T05:33:50.808Z,61.47
2018-08-06T05:34:50.769Z,60.89
2018-08-06T05:35:50.742Z,61.19
2018-08-06T05:36:50.725Z,61.67
2018-08-06T05:37:50.687Z,61.31
2018-08-06T05:38:50.653Z,61.22
2018-08-06T05:39:50.624Z,61.70
2018-08-06T05:40:50.589Z,62.18
2018-08-06T05:41:50.863Z,61.96
2018-08-06T05:42:50.530Z,62.44
2018-08-06T05:43:50.498Z,62.15
2018-08-06T05:44:50.453Z,63.02
2018-08-06T05:45:50.464Z,63.31
2018-08-06T05:46:50.413Z,63.70
2018-08-06T05:47:50.728Z,63.60
2018-08-06T05:48:50.349Z,63.67
2018-08-06T05:49:50.327Z,63.67
2018-08-06T05:50:50.486Z,63.76
2018-08-06T05:51:51.444Z,64.40
2018-08-06T05:52:50.227Z,65.11
2018-08-06T05:53:50.541Z,64.72
2018-08-06T05:54:50.188Z,64.40
2018-08-06T05:55:50.139Z,64.98
2018-08-06T05:56:50.099Z,64.98
2018-08-06T05:57:50.078Z,65.08
2018-08-06T05:58:50.242Z,64.98
2018-08-06T05:59:50.020Z,65.01
2018-08-06T06:00:49.976Z,64.63
2018-08-06T06:01:49.938Z,64.92
2018-08-06T06:02:50.125Z,64.72
2018-08-06T06:03:49.884Z,64.79
2018-08-06T06:04:49.862Z,65.01
2018-08-06T06:05:49.839Z,64.79
2018-08-06T06:06:49.799Z,64.72
2018-08-06T06:07:49.758Z,64.63
2018-08-06T06:08:49.743Z,64.72
2018-08-06T06:09:49.721Z,65.20
2018-08-06T06:10:49.664Z,65.40
2018-08-06T06:11:49.650Z,65.40
2018-08-06T06:12:49.609Z,65.59
2018-08-06T06:13:49.602Z,65.50
2018-08-06T06:14:49.549Z,65.30
2018-08-06T06:15:49.506Z,65.78
2018-08-06T06:16:49.522Z,66.08
2018-08-06T06:17:49.460Z,65.78
2018-08-06T06:18:49.432Z,65.78
2018-08-06T06:19:49.517Z,65.69
2018-08-06T06:20:49.365Z,65.50
2018-08-06T06:21:49.395Z,65.47
2018-08-06T06:22:49.293Z,65.50
2018-08-06T06:23:49.286Z,65.11
2018-08-06T06:24:49.251Z,64.89
2018-08-06T06:25:49.283Z,64.89
2018-08-06T06:27:49.149Z,64.89
2018-08-06T06:28:49.122Z,64.98
2018-08-06T06:29:49.087Z,64.59
2018-08-06T06:30:49.061Z,64.92
2018-08-06T06:31:49.032Z,64.98
2018-08-06T06:32:49.012Z,65.01
2018-08-06T06:33:48.972Z,65.37
2018-08-06T06:34:48.966Z,65.37
2018-08-06T06:35:49.583Z,65.01
2018-08-06T06:36:48.871Z,65.20
2018-08-06T06:37:48.849Z,65.30
2018-08-06T06:38:48.820Z,65.20
2018-08-06T06:39:48.792Z,65.56
2018-08-06T06:40:48.959Z,66.14
2018-08-06T06:41:48.741Z,66.43
2018-08-06T06:42:48.739Z,65.98
2018-08-06T06:43:48.651Z,66.24
2018-08-06T06:44:48.626Z,66.24
2018-08-06T06:45:48.604Z,66.17
2018-08-06T06:46:48.575Z,66.24
2018-08-06T06:47:48.594Z,66.43
2018-08-06T06:48:48.517Z,66.17
2018-08-06T06:49:48.474Z,66.33
2018-08-06T06:50:48.453Z,66.72
2018-08-06T06:51:48.417Z,66.91
2018-08-06T06:52:48.378Z,67.20
2018-08-06T06:53:48.510Z,67.20
2018-08-06T06:54:48.333Z,67.30
2018-08-06T06:55:48.294Z,67.40
2018-08-06T06:56:48.260Z,67.58
2018-08-06T06:57:48.223Z,68.26
2018-08-06T06:58:48.215Z,68.65
2018-08-06T06:59:48.378Z,68.45
2018-08-06T07:00:48.135Z,68.93
2018-08-06T07:01:48.098Z,68.74
2018-08-06T07:02:48.072Z,69.32
2018-08-06T07:03:48.057Z,69.23
2018-08-06T07:05:47.983Z,69.80
2018-08-06T07:06:47.945Z,69.61
2018-08-06T07:07:47.928Z,69.80
2018-08-06T07:08:47.881Z,69.80
2018-08-06T07:09:47.887Z,70.48
2018-08-06T07:10:47.837Z,70.86
2018-08-06T07:11:47.804Z,70.67
2018-08-06T07:12:47.747Z,70.67
2018-08-06T07:13:47.759Z,71.25
2018-08-06T07:14:47.703Z,71.44
2018-08-06T07:15:47.660Z,71.15
2018-08-06T07:16:47.642Z,72.02
2018-08-06T07:17:47.616Z,71.54
2018-08-06T07:18:47.578Z,72.12
2018-08-06T07:19:47.554Z,72.12
2018-08-06T07:20:47.791Z,72.79
2018-08-06T07:21:47.478Z,72.69
2018-08-06T07:22:47.453Z,72.41
2018-08-06T07:23:47.431Z,72.69
2018-08-06T07:24:47.381Z,73.27
2018-08-06T07:25:47.366Z,73.18
2018-08-06T07:26:47.486Z,74.52
2018-08-06T07:27:47.309Z,74.33
2018-08-06T07:28:47.259Z,74.91
2018-08-06T07:29:47.237Z,74.91
2018-08-06T07:30:47.207Z,75.40
2018-08-06T07:31:47.167Z,75.59
2018-08-06T07:32:47.147Z,75.78
2018-08-06T07:33:47.158Z,75.68
2018-08-06T07:34:47.108Z,75.78
2018-08-06T07:35:47.050Z,75.49
2018-08-06T07:36:47.033Z,75.78
2018-08-06T07:37:46.994Z,75.49
2018-08-06T07:38:46.965Z,75.97
2018-08-06T07:39:46.937Z,75.49
2018-08-06T07:40:46.906Z,75.49
2018-08-06T07:41:46.862Z,75.20
2018-08-06T07:42:46.848Z,74.52
2018-08-06T07:43:46.818Z,74.72
2018-08-06T07:44:46.767Z,74.43
2018-08-06T07:45:46.755Z,75.01
2018-08-06T07:46:46.709Z,74.91
2018-08-06T07:47:46.698Z,75.20
2018-08-06T07:48:46.655Z,75.43
2018-08-06T07:49:46.658Z,75.40
2018-08-06T07:50:46.604Z,75.40
2018-08-06T07:51:46.556Z,75.49
2018-08-06T07:52:46.828Z,75.59
2018-08-06T07:53:46.498Z,75.97
2018-08-06T07:54:46.463Z,75.59
2018-08-06T07:55:46.438Z,75.68
2018-08-06T07:56:46.410Z,75.49
2018-08-06T07:57:46.384Z,75.45
2018-08-06T07:58:46.741Z,75.20
2018-08-06T07:59:46.343Z,75.20
2018-08-06T08:00:46.291Z,74.91
2018-08-06T08:01:46.253Z,73.75
2018-08-06T08:02:46.228Z,72.89
2018-08-06T08:03:46.181Z,71.64
2018-08-06T08:04:46.461Z,70.48
2018-08-06T08:05:46.122Z,70.09
2018-08-06T08:06:46.099Z,70.00
2018-08-06T08:07:46.071Z,70.00
2018-08-06T08:08:46.026Z,70.09
2018-08-06T08:09:46.003Z,70.48
2018-08-06T08:10:45.972Z,70.57
2018-08-06T08:11:45.969Z,70.64
2018-08-06T08:12:45.912Z,71.22
2018-08-06T08:13:45.885Z,71.22
2018-08-06T08:14:45.856Z,71.41
2018-08-06T08:15:45.817Z,71.98
2018-08-06T08:16:45.792Z,72.18
2018-08-06T08:17:45.760Z,72.75
2018-08-06T08:18:45.718Z,72.75
2018-08-06T08:19:45.711Z,73.05
2018-08-06T08:20:45.671Z,73.05
2018-08-06T08:21:45.686Z,72.43
2018-08-06T08:22:45.599Z,72.85
2018-08-06T08:23:45.557Z,73.20
2018-08-06T08:24:45.541Z,71.95
2018-08-06T08:25:45.765Z,71.85
2018-08-06T08:26:45.493Z,70.50
2018-08-06T08:27:45.447Z,70.89
2018-08-06T08:28:45.415Z,70.21
2018-08-06T08:29:45.385Z,70.44
2018-08-06T08:30:45.351Z,70.83
2018-08-06T08:32:45.294Z,70.15
2018-08-06T08:33:45.256Z,69.77
2018-08-06T08:34:45.230Z,69.96
2018-08-06T08:35:45.197Z,69.87
2018-08-06T08:36:45.160Z,69.96
2018-08-06T08:37:45.367Z,70.83
2018-08-06T08:38:45.090Z,69.67
2018-08-06T08:39:45.174Z,69.77
2018-08-06T08:40:45.043Z,70.73
2018-08-06T08:41:45.007Z,69.96
2018-08-06T08:42:44.996Z,69.96
2018-08-06T08:43:44.957Z,69.96
2018-08-06T08:44:44.923Z,70.54
2018-08-06T08:45:44.888Z,69.96
2018-08-06T08:47:44.829Z,70.25
2018-08-06T08:48:44.774Z,70.73
2018-08-06T08:49:44.763Z,70.44
2018-08-06T08:50:44.727Z,70.92
2018-08-06T08:51:44.707Z,71.02
2018-08-06T08:52:44.660Z,71.41
2018-08-06T08:53:44.646Z,71.12
2018-08-06T08:54:44.597Z,70.73
2018-08-06T08:55:44.577Z,70.83
2018-08-06T08:56:44.529Z,70.73
2018-08-06T08:57:44.626Z,71.41
2018-08-06T08:58:44.504Z,71.60
2018-08-06T08:59:44.447Z,71.31
2018-08-06T09:00:44.404Z,71.79
2018-08-06T09:01:44.383Z,71.50
2018-08-06T09:02:44.553Z,71.89
2018-08-06T09:03:44.476Z,72.85
2018-08-06T09:04:44.483Z,72.18
2018-08-06T09:05:44.253Z,72.18
2018-08-06T09:06:44.230Z,72.08
2018-08-06T09:07:44.205Z,72.27
2018-08-06T09:08:44.169Z,72.18
2018-08-06T09:09:44.139Z,71.60
2018-08-06T09:10:44.109Z,71.60
2018-08-06T09:11:44.279Z,72.18
2018-08-06T09:12:44.137Z,71.64
2018-08-06T09:13:44.007Z,72.12
2018-08-06T09:14:43.968Z,71.92
2018-08-06T09:15:44.141Z,71.15
2018-08-06T09:16:44.131Z,71.44
2018-08-06T09:17:43.891Z,71.06
2018-08-06T09:18:43.857Z,71.44
2018-08-06T09:19:43.823Z,70.96
2018-08-06T09:20:43.802Z,71.44
2018-08-06T09:21:43.768Z,71.34
2018-08-06T09:22:43.737Z,71.31
2018-08-06T09:23:43.698Z,71.41
2018-08-06T09:25:43.656Z,71.34
2018-08-06T09:26:43.816Z,70.86
2018-08-06T09:27:43.591Z,70.54
2018-08-06T09:28:43.536Z,71.41
2018-08-06T09:29:43.907Z,71.60
2018-08-06T09:30:43.487Z,71.12
2018-08-06T09:31:43.443Z,71.31
2018-08-06T09:32:43.431Z,70.64
2018-08-06T09:33:43.382Z,70.54
2018-08-06T09:34:43.367Z,70.54
2018-08-06T09:35:43.521Z,70.73
2018-08-06T09:36:43.279Z,70.44
2018-08-06T09:37:43.267Z,70.92
2018-08-06T09:38:43.242Z,70.54
2018-08-06T09:39:43.200Z,70.35
2018-08-06T09:40:43.203Z,70.44
2018-08-06T09:41:43.195Z,70.15
2018-08-06T09:42:43.115Z,69.96
2018-08-06T09:43:43.083Z,70.25
2018-08-06T09:44:43.124Z,70.44
2018-08-06T09:45:43.060Z,70.25
2018-08-06T09:46:42.987Z,70.44
2018-08-06T09:47:42.962Z,70.44
2018-08-06T09:48:42.977Z,70.25
2018-08-06T09:49:42.899Z,70.35
2018-08-06T09:50:42.908Z,69.77
2018-08-06T09:51:42.879Z,69.96
2018-08-06T09:52:42.801Z,69.57
2018-08-06T09:53:42.763Z,69.67
2018-08-06T09:54:42.742Z,69.96
2018-08-06T09:55:42.756Z,70.15
2018-08-06T09:56:42.680Z,70.06
2018-08-06T09:57:42.636Z,69.77
2018-08-06T09:58:42.602Z,69.57
2018-08-06T09:59:42.565Z,69.67
2018-08-06T10:00:42.551Z,69.67
2018-08-06T10:01:42.709Z,69.77
2018-08-06T10:02:42.471Z,69.23
2018-08-06T10:03:42.440Z,69.03
2018-08-06T10:04:42.420Z,69.03
2018-08-06T10:05:42.464Z,69.03
2018-08-06T10:06:42.488Z,69.13
2018-08-06T10:07:42.382Z,68.84
2018-08-06T10:08:42.400Z,69.07
2018-08-06T10:09:42.253Z,69.16
2018-08-06T10:10:42.244Z,69.74
2018-08-06T10:11:42.189Z,70.03
2018-08-06T10:12:42.219Z,69.93
2018-08-06T10:13:42.135Z,70.51
2018-08-06T10:14:42.113Z,70.48
2018-08-06T10:15:42.085Z,70.57
2018-08-06T10:16:42.045Z,71.44
2018-08-06T10:17:42.066Z,71.44
2018-08-06T10:18:42.172Z,71.83
2018-08-06T10:19:42.041Z,71.06
2018-08-06T10:20:41.920Z,71.83
2018-08-06T10:21:41.892Z,72.12
2018-08-06T10:22:41.906Z,71.92
2018-08-06T10:23:41.871Z,71.73
2018-08-06T10:24:43.216Z,71.92
2018-08-06T10:25:41.969Z,71.44
2018-08-06T10:26:41.743Z,71.54
2018-08-06T10:27:41.727Z,71.25
2018-08-06T10:28:41.928Z,71.44
2018-08-06T10:29:41.649Z,71.25
2018-08-06T10:30:41.696Z,71.38
2018-08-06T10:31:41.574Z,71.83
2018-08-06T10:32:41.556Z,71.48
2018-08-06T10:33:41.518Z,71.34
2018-08-06T10:34:41.593Z,71.73
2018-08-06T10:35:41.463Z,71.38
2018-08-06T10:36:41.432Z,71.67
2018-08-06T10:37:41.414Z,70.80
2018-08-06T10:38:41.376Z,70.42
2018-08-06T10:39:41.556Z,70.70
2018-08-06T10:40:41.410Z,70.70
2018-08-06T10:41:41.277Z,71.09
2018-08-06T10:42:41.248Z,70.51
2018-08-06T10:43:41.200Z,70.03
2018-08-06T10:44:41.184Z,70.32
2018-08-06T10:45:41.146Z,70.22
2018-08-06T10:46:41.116Z,70.03
2018-08-06T10:47:41.080Z,70.80
2018-08-06T10:48:41.125Z,71.00
2018-08-06T10:49:41.029Z,70.90
2018-08-06T10:50:40.986Z,70.70
2018-08-06T10:51:40.957Z,70.22
2018-08-06T10:52:40.914Z,70.51
2018-08-06T10:53:40.893Z,69.93
2018-08-06T10:54:40.900Z,70.64
2018-08-06T10:55:40.841Z,69.68
2018-08-06T10:56:40.831Z,70.45
2018-08-06T10:57:40.779Z,70.16
2018-08-06T10:58:40.752Z,70.26
2018-08-06T10:59:40.749Z,70.16
2018-08-06T11:01:40.657Z,70.26
2018-08-06T11:02:40.629Z,69.97
2018-08-06T11:03:40.593Z,69.71
2018-08-06T11:04:40.567Z,69.81
2018-08-06T11:05:40.533Z,70.10
2018-08-06T11:06:40.813Z,70.00
2018-08-06T11:07:40.461Z,70.20
2018-08-06T11:08:40.459Z,69.90
2018-08-06T11:09:40.392Z,70.87
2018-08-06T11:10:40.390Z,70.10
2018-08-06T11:11:40.357Z,70.20
2018-08-06T11:12:40.476Z,69.90
2018-08-06T11:13:40.286Z,70.00
2018-08-06T11:14:40.268Z,69.74
2018-08-06T11:15:40.226Z,69.36
2018-08-06T11:16:40.198Z,69.26
2018-08-06T11:18:40.337Z,68.98
2018-08-06T11:19:40.106Z,69.17
2018-08-06T11:20:40.092Z,68.88
2018-08-06T11:21:40.025Z,69.07
2018-08-06T11:22:40.073Z,69.17
2018-08-06T11:23:39.999Z,69.84
2018-08-06T11:24:40.160Z,70.04
2018-08-06T11:47:15.838Z,67.59
2018-08-06T11:48:15.668Z,67.49
2018-08-06T11:49:15.627Z,67.69
2018-08-06T11:50:15.818Z,68.88
2018-08-06T11:51:15.542Z,68.79
2018-08-06T11:52:15.521Z,68.11
2018-08-06T11:53:15.643Z,67.82
2018-08-06T11:54:15.452Z,68.11
2018-08-06T11:55:15.420Z,69.46
2018-08-06T11:56:15.390Z,68.21
2018-08-06T11:57:15.350Z,67.18
2018-08-06T11:58:15.323Z,66.98
2018-08-06T11:59:15.286Z,67.56
2018-08-06T12:00:15.262Z,67.27
2018-08-06T12:01:15.214Z,67.18
2018-08-06T12:02:15.195Z,68.05
2018-08-06T12:03:15.161Z,67.98
2018-08-06T12:04:15.137Z,67.50
2018-08-06T12:05:15.096Z,67.60
2018-08-06T12:06:15.064Z,67.40
2018-08-06T12:07:15.035Z,67.11
2018-08-06T12:08:15.010Z,66.95
2018-08-06T12:09:14.979Z,66.82
2018-08-06T12:10:14.946Z,66.47
2018-08-06T12:11:14.913Z,66.08
2018-08-06T12:12:14.863Z,65.40
2018-08-06T12:13:14.854Z,65.40
2018-08-06T12:14:14.821Z,65.69
2018-08-06T12:15:14.844Z,65.24
2018-08-06T12:16:14.854Z,65.82
2018-08-06T12:17:14.733Z,66.02
2018-08-06T12:18:14.698Z,65.72
2018-08-06T12:19:14.652Z,64.95
2018-08-06T12:20:14.683Z,64.78
2018-08-06T12:21:14.599Z,64.30
2018-08-06T12:22:14.578Z,64.37
2018-08-06T12:23:14.552Z,63.62
2018-08-06T12:24:14.672Z,64.01
2018-08-06T12:25:14.509Z,62.55
2018-08-06T12:26:14.739Z,62.46
2018-08-06T12:27:14.634Z,61.68
2018-08-06T12:28:14.384Z,62.98
2018-08-06T12:29:14.368Z,61.81
2018-08-06T12:30:14.501Z,62.59
2018-08-06T12:31:14.335Z,62.10
2018-08-06T12:32:14.269Z,61.32
2018-08-06T12:33:14.252Z,61.61
2018-08-06T12:34:14.419Z,61.52
2018-08-06T12:35:14.184Z,61.65
2018-08-06T12:36:14.524Z,61.16
2018-08-06T12:37:14.126Z,61.55
2018-08-06T12:38:14.150Z,60.48
2018-08-06T12:39:14.103Z,60.28
2018-08-06T12:40:14.274Z,60.28
2018-08-06T12:41:14.020Z,61.25
2018-08-06T12:42:14.004Z,60.31
2018-08-06T12:43:13.963Z,59.83
2018-08-06T12:44:13.947Z,59.54
2018-08-06T12:45:13.913Z,58.47
2018-08-06T12:47:13.854Z,58.47
2018-08-06T12:48:13.826Z,57.62
2018-08-06T12:49:13.794Z,57.04
2018-08-06T12:50:13.763Z,56.36
2018-08-06T12:51:13.725Z,57.53
2018-08-06T12:52:13.992Z,56.56
2018-08-06T12:53:13.681Z,56.26
2018-08-06T12:54:13.653Z,55.49
2018-08-06T12:55:13.609Z,56.65
2018-08-06T12:56:13.590Z,55.78
2018-08-06T12:57:13.619Z,55.58
2018-08-06T12:58:13.831Z,55.78
2018-08-06T12:59:13.500Z,55.49
2018-08-06T13:00:13.475Z,56.65
2018-08-06T13:01:13.448Z,54.90
2018-08-06T13:02:13.444Z,55.78
2018-08-06T13:03:13.415Z,55.61
2018-08-06T13:04:13.654Z,54.83
2018-08-06T13:05:13.413Z,53.86
2018-08-06T13:06:13.381Z,54.25
2018-08-06T13:07:13.262Z,54.64
2018-08-06T13:08:13.250Z,53.38
2018-08-06T13:09:13.220Z,53.57
2018-08-06T13:10:13.198Z,53.47
2018-08-06T13:11:13.194Z,53.45
2018-08-06T13:12:13.126Z,54.32
2018-08-06T13:13:13.113Z,53.96
2018-08-06T13:14:13.147Z,54.32
2018-08-06T13:15:13.107Z,53.96
2018-08-06T13:16:13.025Z,54.05
2018-08-06T13:17:13.027Z,53.45
2018-08-06T13:18:13.054Z,53.18
2018-08-06T13:19:12.926Z,53.54
2018-08-06T13:20:12.908Z,52.76
2018-08-06T13:21:13.086Z,53.08
2018-08-06T13:22:13.540Z,52.76
2018-08-06T13:23:12.813Z,52.98
2018-08-06T13:24:12.812Z,53.54
2018-08-06T13:25:12.818Z,53.45
2018-08-06T13:26:12.742Z,53.16
2018-08-06T13:27:12.714Z,52.96
2018-08-06T13:28:12.685Z,53.54
2018-08-06T13:29:12.655Z,52.76